Time;durP1;ratioP1;P1;durP2;ratioP2;P2;SDS_P1;SDS_P2;PMS_P1;PMS_P2;Temp;Humidity;BMP_temperature;BMP_pressure;BME280_temperature;BME280_humidity;BME280_pressure;Samples;Min_cycle;Max_cycle;Signal;HPM_P1;HPM_P2
2022/05/02 00:00:42;;;;;;;11.97;9.27;;;8.70;99.90;;;;;;5026298;28;20464;-80
2022/05/02 00:03:09;;;;;;;12.67;8.87;;;8.60;99.90;;;;;;5020919;28;20462;-81
2022/05/02 00:05:35;;;;;;;10.23;9.10;;;8.60;99.90;;;;;;5016444;28;20451;-81
2022/05/02 00:08:02;;;;;;;12.20;9.03;;;8.50;99.90;;;;;;5029889;28;20479;-82
2022/05/02 00:10:30;;;;;;;10.70;9.03;;;8.50;99.90;;;;;;5036193;28;20460;-80
2022/05/02 00:12:58;;;;;;;12.87;8.63;;;8.50;99.90;;;;;;5034124;28;20905;-82
2022/05/02 00:15:25;;;;;;;9.83;8.83;;;8.50;99.90;;;;;;5035188;28;20503;-81
2022/05/02 00:17:58;;;;;;;11.17;9.60;;;8.40;99.90;;;;;;5024157;28;20481;-79
2022/05/02 00:20:27;;;;;;;12.53;10.00;;;8.40;99.90;;;;;;5021668;28;20470;-81
2022/05/02 00:25:32;;;;;;;12.43;10.70;;;8.30;99.90;;;;;;5043807;28;20525;-81
2022/05/02 00:28:01;;;;;;;12.37;9.57;;;8.30;99.90;;;;;;5049027;28;20457;-81
2022/05/02 00:30:29;;;;;;;11.73;9.10;;;8.30;99.90;;;;;;5041362;28;20448;-83
2022/05/02 00:32:56;;;;;;;12.00;9.80;;;8.30;99.90;;;;;;5052053;28;20444;-81
2022/05/02 00:35:24;;;;;;;11.60;9.60;;;8.30;99.90;;;;;;5036253;28;20535;-82
2022/05/02 00:37:50;;;;;;;12.43;10.40;;;8.30;99.90;;;;;;5035320;28;20457;-82
2022/05/02 00:40:19;;;;;;;11.40;9.97;;;8.20;99.90;;;;;;5034865;28;20448;-84
2022/05/02 00:42:47;;;;;;;15.40;9.97;;;8.20;99.90;;;;;;5035110;28;20849;-81
2022/05/02 00:45:16;;;;;;;10.83;9.30;;;8.20;99.90;;;;;;5036044;28;20477;-81
2022/05/02 00:47:50;;;;;;;11.70;10.50;;;8.10;99.90;;;;;;5035526;28;20450;-83
2022/05/02 00:50:25;;;;;;;12.50;11.20;;;8.10;99.90;;;;;;5034639;28;20507;-83
2022/05/02 00:52:52;;;;;;;14.80;10.40;;;8.10;99.90;;;;;;5035646;28;20448;-83
2022/05/02 00:55:19;;;;;;;12.43;10.13;;;8.00;99.90;;;;;;5035834;28;20471;-82
2022/05/02 00:57:46;;;;;;;14.93;10.57;;;8.00;99.90;;;;;;5034156;28;20825;-82
2022/05/02 01:00:15;;;;;;;11.93;10.20;;;7.90;99.90;;;;;;5034749;28;20454;-83
2022/05/02 01:02:42;;;;;;;13.23;10.47;;;7.90;99.90;;;;;;5034753;28;20560;-82
2022/05/02 01:05:09;;;;;;;11.57;9.70;;;7.80;99.90;;;;;;5035299;28;20472;-82
2022/05/02 01:07:35;;;;;;;15.33;10.73;;;7.80;99.90;;;;;;5036815;28;20967;-82
2022/05/02 01:10:01;;;;;;;13.13;9.73;;;7.70;99.90;;;;;;5038805;28;20449;-83
2022/05/02 01:12:28;;;;;;;16.33;11.53;;;7.70;99.90;;;;;;5038542;28;20238;-83
2022/05/02 01:14:57;;;;;;;12.97;10.17;;;7.70;99.90;;;;;;5038494;28;20472;-81
2022/05/02 01:17:25;;;;;;;11.70;10.10;;;7.70;99.90;;;;;;5038842;28;20485;-81
2022/05/02 01:19:52;;;;;;;15.40;11.23;;;7.60;99.90;;;;;;5039190;28;20463;-81
2022/05/02 01:22:20;;;;;;;13.43;10.03;;;7.60;99.90;;;;;;5038227;28;20452;-80
2022/05/02 01:24:49;;;;;;;15.40;10.10;;;7.60;99.90;;;;;;5038522;28;20484;-82
2022/05/02 01:27:17;;;;;;;12.10;10.57;;;7.50;99.90;;;;;;5035072;28;20449;-81
2022/05/02 01:29:45;;;;;;;15.77;12.10;;;7.50;99.90;;;;;;5028548;28;20462;-82
2022/05/02 01:32:13;;;;;;;13.17;10.53;;;7.50;99.90;;;;;;5037812;28;20460;-84
2022/05/02 01:34:41;;;;;;;12.50;9.40;;;7.50;99.90;;;;;;5038702;28;20452;-83
2022/05/02 01:37:08;;;;;;;14.13;10.10;;;7.50;99.90;;;;;;5037919;28;20476;-81
2022/05/02 01:39:37;;;;;;;13.30;11.07;;;7.40;99.90;;;;;;5038530;28;20452;-83
2022/05/02 01:42:06;;;;;;;13.70;10.47;;;7.40;99.90;;;;;;5038431;28;20484;-80
2022/05/02 01:44:34;;;;;;;12.83;10.53;;;7.40;99.90;;;;;;5037802;28;20480;-83
2022/05/02 01:47:00;;;;;;;14.40;10.80;;;7.30;99.90;;;;;;5038078;28;20464;-83
2022/05/02 01:49:27;;;;;;;13.43;10.37;;;7.40;99.90;;;;;;5037739;28;20460;-82
2022/05/02 01:51:57;;;;;;;13.40;9.60;;;7.40;99.90;;;;;;5038530;28;21006;-82
2022/05/02 01:54:24;;;;;;;15.30;11.23;;;7.40;99.90;;;;;;5038534;28;20487;-82
2022/05/02 01:56:53;;;;;;;14.13;11.20;;;7.40;99.90;;;;;;5037150;28;20527;-82
2022/05/02 01:59:19;;;;;;;11.67;10.13;;;7.30;99.90;;;;;;5037066;28;20457;-84
2022/05/02 02:01:46;;;;;;;17.10;11.37;;;7.30;99.90;;;;;;5036603;28;20952;-82
2022/05/02 02:06:57;;;;;;;16.10;12.47;;;7.30;99.90;;;;;;5036693;28;20443;-82
2022/05/02 02:09:23;;;;;;;13.03;11.07;;;7.30;99.90;;;;;;5036566;28;20839;-81
2022/05/02 02:11:52;;;;;;;16.77;12.27;;;7.30;99.90;;;;;;5037255;28;20445;-83
2022/05/02 02:14:18;;;;;;;14.23;12.07;;;7.30;99.90;;;;;;5037669;28;20514;-83
2022/05/02 02:16:45;;;;;;;15.27;12.07;;;7.30;99.90;;;;;;5038442;28;20495;-82
2022/05/02 02:19:12;;;;;;;15.10;12.20;;;7.30;99.90;;;;;;5036951;28;20479;-82
2022/05/02 02:21:39;;;;;;;13.67;11.97;;;7.30;99.90;;;;;;5038087;28;20455;-82
2022/05/02 02:24:06;;;;;;;14.40;12.20;;;7.20;99.90;;;;;;5037481;28;20484;-82
2022/05/02 02:26:33;;;;;;;12.87;11.57;;;7.30;99.90;;;;;;5038289;28;20456;-83
2022/05/02 02:29:01;;;;;;;14.73;11.80;;;7.30;99.90;;;;;;5037606;28;20451;-82
2022/05/02 02:31:29;;;;;;;15.10;12.67;;;7.40;99.90;;;;;;5037780;28;20465;-83
2022/05/02 02:33:55;;;;;;;15.73;12.33;;;7.40;99.90;;;;;;5038169;28;21091;-83
2022/05/02 02:36:22;;;;;;;14.60;10.87;;;7.40;99.90;;;;;;5037882;28;20480;-82
2022/05/02 02:38:49;;;;;;;12.97;10.90;;;7.50;99.90;;;;;;5037483;28;20452;-83
2022/05/02 02:41:15;;;;;;;14.73;12.27;;;7.50;99.90;;;;;;5029197;28;20475;-83
2022/05/02 02:43:42;;;;;;;16.93;12.80;;;7.50;99.90;;;;;;5035786;28;20479;-83
2022/05/02 02:46:10;;;;;;;17.00;12.50;;;7.60;99.90;;;;;;5038343;28;20888;-83
2022/05/02 02:48:37;;;;;;;17.57;13.70;;;7.60;99.90;;;;;;5037367;28;20985;-83
2022/05/02 02:51:04;;;;;;;16.83;13.83;;;7.60;99.90;;;;;;5038473;28;20455;-82
2022/05/02 02:53:31;;;;;;;17.10;12.80;;;7.70;99.90;;;;;;5037916;28;21008;-82
2022/05/02 02:55:57;;;;;;;14.70;11.67;;;7.70;99.90;;;;;;5039156;28;20464;-83
2022/05/02 02:58:24;;;;;;;15.33;12.33;;;7.70;99.90;;;;;;5038328;28;20973;-83
2022/05/02 03:00:51;;;;;;;14.17;12.07;;;7.70;99.90;;;;;;5038772;28;20494;-83
2022/05/02 03:03:19;;;;;;;16.13;12.77;;;7.70;99.90;;;;;;5039903;28;20459;-84
2022/05/02 03:06:03;;;;;;;15.70;13.07;;;7.70;99.90;;;;;;5039974;28;20460;-84
2022/05/02 03:08:31;;;;;;;16.57;13.10;;;7.80;99.90;;;;;;5037010;28;20504;-83
2022/05/02 03:10:58;;;;;;;16.93;13.10;;;7.80;99.90;;;;;;5036127;28;20453;-83
2022/05/02 03:13:25;;;;;;;17.07;12.80;;;7.80;99.90;;;;;;5036597;28;20480;-82
2022/05/02 03:15:52;;;;;;;16.40;13.60;;;7.80;99.90;;;;;;5035881;28;20973;-81
2022/05/02 03:18:20;;;;;;;16.17;13.60;;;7.80;99.90;;;;;;5034536;28;20464;-80
2022/05/02 03:20:48;;;;;;;13.57;10.80;;;7.70;99.90;;;;;;5037885;28;20462;-83
2022/05/02 03:23:14;;;;;;;17.00;11.87;;;7.60;99.90;;;;;;5044078;28;20445;-83
2022/05/02 03:25:41;;;;;;;16.60;11.97;;;7.60;99.90;;;;;;5035645;28;20457;-83
2022/05/02 03:28:08;;;;;;;14.30;11.70;;;7.50;99.90;;;;;;5035722;28;20805;-81
2022/05/02 03:30:35;;;;;;;14.00;11.97;;;7.40;99.90;;;;;;5034656;28;20449;-83
2022/05/02 03:33:02;;;;;;;14.80;11.70;;;7.30;99.90;;;;;;5035533;28;20467;-82
2022/05/02 03:35:30;;;;;;;16.13;12.50;;;7.30;99.90;;;;;;5043159;28;20449;-83
2022/05/02 03:37:58;;;;;;;14.13;10.60;;;7.30;99.90;;;;;;5034859;28;21013;-82
2022/05/02 03:40:25;;;;;;;14.37;12.60;;;7.30;99.90;;;;;;5034726;28;20519;-83
2022/05/02 03:42:52;;;;;;;18.40;12.07;;;7.20;99.90;;;;;;5035055;28;20547;-82
2022/05/02 03:45:19;;;;;;;13.13;11.40;;;7.10;99.90;;;;;;5043590;28;20954;-82
2022/05/02 03:47:46;;;;;;;14.20;12.37;;;7.10;99.90;;;;;;5035794;28;20455;-82
2022/05/02 03:50:13;;;;;;;13.10;11.50;;;7.00;99.90;;;;;;5036286;28;20465;-81
2022/05/02 03:52:41;;;;;;;14.03;11.97;;;7.00;99.90;;;;;;5047087;28;20447;-83
2022/05/02 03:55:08;;;;;;;13.80;11.80;;;7.00;99.90;;;;;;5037393;28;20441;-82
2022/05/02 03:57:35;;;;;;;15.93;10.87;;;6.90;99.90;;;;;;5034839;28;20485;-82
2022/05/02 04:00:02;;;;;;;13.80;11.90;;;7.00;99.90;;;;;;5034512;28;20457;-80
2022/05/02 04:02:29;;;;;;;13.40;11.83;;;6.90;99.90;;;;;;5035410;28;20454;-82
2022/05/02 04:04:55;;;;;;;15.07;12.40;;;6.90;99.90;;;;;;5035932;28;20477;-80
2022/05/02 04:07:22;;;;;;;14.13;11.27;;;6.90;99.90;;;;;;5035364;28;20553;-81
2022/05/02 04:09:50;;;;;;;14.23;11.90;;;6.90;99.90;;;;;;5035149;28;20451;-83
2022/05/02 04:12:17;;;;;;;16.40;12.50;;;6.90;99.90;;;;;;5035414;28;20460;-82
2022/05/02 04:14:45;;;;;;;15.17;12.80;;;6.90;99.90;;;;;;5035514;28;20472;-81
2022/05/02 04:17:12;;;;;;;14.17;12.07;;;6.90;99.90;;;;;;5034833;28;20856;-81
2022/05/02 04:19:39;;;;;;;14.70;11.73;;;7.00;99.90;;;;;;5034621;28;20467;-81
2022/05/02 04:22:06;;;;;;;16.50;12.00;;;7.00;99.90;;;;;;5035461;28;20464;-82
2022/05/02 04:24:32;;;;;;;14.83;12.00;;;7.10;99.90;;;;;;5036406;28;20490;-81
2022/05/02 04:27:00;;;;;;;13.57;11.20;;;7.10;99.90;;;;;;5036540;28;20451;-80
2022/05/02 04:29:27;;;;;;;15.77;13.20;;;7.20;99.90;;;;;;5039708;28;20467;-80
2022/05/02 04:31:54;;;;;;;15.23;12.57;;;7.10;99.90;;;;;;5040745;28;20453;-79
2022/05/02 04:34:21;;;;;;;18.50;11.90;;;7.10;99.90;;;;;;5039927;28;20475;-82
2022/05/02 04:36:47;;;;;;;14.20;10.53;;;7.20;99.90;;;;;;5040361;28;20483;-81
2022/05/02 04:39:14;;;;;;;14.43;11.40;;;7.30;99.90;;;;;;5039354;28;20449;-81
2022/05/02 04:41:41;;;;;;;14.13;11.97;;;7.30;99.90;;;;;;5044132;28;20522;-79
2022/05/02 04:44:09;;;;;;;15.23;11.97;;;7.30;99.90;;;;;;5052060;28;20481;-81
2022/05/02 04:46:36;;;;;;;14.93;12.17;;;7.30;99.90;;;;;;5038876;28;20549;-81
2022/05/02 04:49:03;;;;;;;14.30;12.80;;;7.40;99.90;;;;;;5039683;28;20461;-80
2022/05/02 04:51:29;;;;;;;16.73;10.67;;;7.50;99.90;;;;;;5039242;28;20453;-80
2022/05/02 04:53:56;;;;;;;16.03;13.63;;;7.60;99.90;;;;;;5039284;28;20476;-80
2022/05/02 04:56:23;;;;;;;13.00;11.50;;;7.60;99.90;;;;;;5039180;28;20453;-82
2022/05/02 04:58:50;;;;;;;14.17;12.67;;;7.70;99.90;;;;;;5038796;28;20499;-81
2022/05/02 05:01:18;;;;;;;14.23;12.23;;;7.80;99.90;;;;;;5038769;28;20456;-81
2022/05/02 05:03:46;;;;;;;15.57;12.50;;;7.90;99.90;;;;;;5038241;28;20484;-82
2022/05/02 05:06:13;;;;;;;14.43;12.77;;;8.00;99.90;;;;;;5039014;28;20579;-79
2022/05/02 05:08:40;;;;;;;15.50;12.10;;;8.10;99.90;;;;;;5032355;28;20449;-81
2022/05/02 05:11:28;;;;;;;17.30;14.10;;;8.10;99.90;;;;;;5031945;28;20463;-80
2022/05/02 05:16:56;;;;;;;15.30;12.83;;;8.20;99.90;;;;;;5012611;28;20469;-81
2022/05/02 05:19:45;;;;;;;15.73;13.17;;;8.30;99.90;;;;;;5038032;28;20460;-81
2022/05/02 05:22:24;;;;;;;15.27;12.70;;;8.30;99.90;;;;;;5032589;28;20464;-81
2022/05/02 05:25:07;;;;;;;13.73;12.13;;;8.40;99.90;;;;;;5038486;28;20478;-82
2022/05/02 05:27:48;;;;;;;14.97;13.47;;;8.50;99.90;;;;;;5038118;28;20455;-80
2022/05/02 05:30:21;;;;;;;14.43;12.13;;;8.60;99.90;;;;;;5034994;28;20460;-81
2022/05/02 05:33:00;;;;;;;15.73;13.10;;;8.80;99.90;;;;;;5035079;28;20508;-79
2022/05/02 05:35:41;;;;;;;5.00;2.97;;;8.90;99.90;;;;;;5036960;28;20473;-81
2022/05/02 05:38:10;;;;;;;22.87;17.87;;;9.90;99.90;;;;;;5043518;28;20489;-81
2022/05/02 05:40:39;;;;;;;18.30;15.93;;;10.60;99.90;;;;;;5035038;28;20453;-80
2022/05/02 05:43:24;;;;;;;14.80;13.20;;;10.40;99.90;;;;;;5030412;28;20466;-80
2022/05/02 05:46:01;;;;;;;13.80;11.87;;;10.40;99.90;;;;;;5034833;28;20455;-81
2022/05/02 05:48:47;;;;;;;16.30;12.33;;;10.50;99.90;;;;;;5032889;28;20455;-80
2022/05/02 05:51:28;;;;;;;15.23;12.87;;;10.50;99.90;;;;;;5032491;28;20837;-82
2022/05/02 05:54:04;;;;;;;15.50;11.83;;;10.60;99.90;;;;;;5026701;28;20473;-80
2022/05/02 05:56:43;;;;;;;12.13;10.67;;;10.60;99.90;;;;;;5032944;28;20907;-80
2022/05/02 05:59:13;;;;;;;13.23;11.30;;;10.70;99.90;;;;;;5032750;28;20971;-81
2022/05/02 06:02:01;;;;;;;13.37;11.07;;;10.80;99.90;;;;;;5034445;28;20460;-81
2022/05/02 06:04:35;;;;;;;12.77;10.87;;;10.90;99.90;;;;;;5033918;28;20858;-80
2022/05/02 06:07:02;;;;;;;12.10;10.67;;;11.10;99.90;;;;;;5028269;28;20550;-81
2022/05/02 06:09:31;;;;;;;14.13;10.70;;;11.20;99.90;;;;;;5028614;28;20456;-82
2022/05/02 06:11:59;;;;;;;12.53;10.23;;;11.20;99.90;;;;;;5030619;28;20468;-82
2022/05/02 06:14:28;;;;;;;12.50;9.40;;;11.30;99.90;;;;;;5026110;28;20488;-81
2022/05/02 06:19:44;;;;;;;11.80;10.60;;;11.30;99.90;;;;;;5033483;28;20548;-80
2022/05/02 06:22:12;;;;;;;15.60;10.33;;;11.30;99.90;;;;;;5038696;28;20597;-82
2022/05/02 06:24:45;;;;;;;14.50;12.27;;;11.30;99.90;;;;;;5037622;28;20476;-82
2022/05/02 06:27:12;;;;;;;14.77;11.13;;;11.40;99.90;;;;;;5032467;28;20460;-81
2022/05/02 06:29:41;;;;;;;12.60;9.80;;;11.40;99.90;;;;;;5030339;28;20455;-81
2022/05/02 06:32:11;;;;;;;14.77;11.23;;;11.40;99.90;;;;;;5032212;28;20964;-80
2022/05/02 06:34:39;;;;;;;14.20;12.50;;;11.30;99.90;;;;;;5038365;28;20479;-81
2022/05/02 06:37:31;;;;;;;12.67;10.90;;;11.20;99.90;;;;;;5030747;28;20892;-82
2022/05/02 06:40:05;;;;;;;15.00;12.20;;;11.30;99.90;;;;;;5031022;28;20460;-81
2022/05/02 06:42:38;;;;;;;15.27;12.13;;;11.30;99.90;;;;;;5032910;28;20844;-80
2022/05/02 06:45:21;;;;;;;12.80;11.50;;;11.20;99.90;;;;;;5032323;28;20477;-81
2022/05/02 06:48:18;;;;;;;14.13;12.37;;;11.00;99.90;;;;;;5015283;28;20902;-81
2022/05/02 06:50:48;;;;;;;12.53;11.17;;;11.30;99.90;;;;;;5015996;28;20532;-81
2022/05/02 06:53:33;;;;;;;13.47;12.17;;;11.40;99.90;;;;;;5041655;28;20456;-81
2022/05/02 06:56:09;;;;;;;13.47;11.47;;;11.60;99.90;;;;;;5040538;28;20448;-80
2022/05/02 06:58:49;;;;;;;11.93;10.63;;;11.70;99.90;;;;;;5033524;28;20501;-81
2022/05/02 07:01:26;;;;;;;14.70;10.40;;;11.90;99.90;;;;;;5039141;28;20449;-82
2022/05/02 07:04:17;;;;;;;12.33;11.23;;;12.10;99.90;;;;;;5036584;28;20478;-81
2022/05/02 07:07:09;;;;;;;14.43;12.93;;;12.40;99.90;;;;;;5033901;28;20467;-80
2022/05/02 07:09:43;;;;;;;17.07;12.70;;;12.40;99.90;;;;;;5036986;28;20443;-82
2022/05/02 07:12:16;;;;;;;11.53;10.00;;;12.60;99.90;;;;;;5040553;28;20484;-80
2022/05/02 07:15:03;;;;;;;11.97;10.77;;;13.00;99.90;;;;;;5036184;28;21077;-81
2022/05/02 07:17:45;;;;;;;12.67;11.37;;;13.40;99.90;;;;;;5034787;28;20569;-80
2022/05/02 07:20:18;;;;;;;11.90;10.23;;;13.60;99.90;;;;;;5033825;28;20487;-82
2022/05/02 07:22:49;;;;;;;15.97;11.93;;;14.10;99.90;;;;;;5032880;28;20456;-81
2022/05/02 07:25:21;;;;;;;12.93;10.27;;;14.30;99.90;;;;;;5033570;28;20867;-81
2022/05/02 07:28:00;;;;;;;12.97;11.10;;;14.50;99.90;;;;;;5035058;28;20956;-82
2022/05/02 07:30:27;;;;;;;13.93;11.47;;;14.80;99.90;;;;;;5034900;28;20877;-80
2022/05/02 07:32:54;;;;;;;14.23;11.17;;;14.90;99.90;;;;;;5034989;28;20522;-82
2022/05/02 07:35:23;;;;;;;11.07;9.70;;;15.00;99.90;;;;;;5035241;28;20465;-80
2022/05/02 07:37:51;;;;;;;11.63;10.33;;;15.30;99.90;;;;;;5034628;28;20521;-80
2022/05/02 07:40:22;;;;;;;12.73;9.50;;;15.70;99.90;;;;;;5036243;28;20970;-82
2022/05/02 07:42:49;;;;;;;11.90;9.57;;;15.80;99.90;;;;;;5039587;28;20457;-81
2022/05/02 07:45:20;;;;;;;11.97;10.07;;;16.00;99.90;;;;;;5036331;28;20501;-81
2022/05/02 07:47:48;;;;;;;11.00;9.27;;;16.00;99.90;;;;;;5035152;28;20557;-81
2022/05/02 07:50:19;;;;;;;11.63;10.33;;;15.80;99.90;;;;;;5035725;28;20513;-81
2022/05/02 07:52:48;;;;;;;9.60;8.60;;;15.80;99.90;;;;;;5043746;28;20951;-81
2022/05/02 07:55:16;;;;;;;9.20;8.30;;;16.00;99.90;;;;;;5036370;28;20564;-81
2022/05/02 07:57:48;;;;;;;9.90;8.87;;;16.30;99.90;;;;;;5037738;28;20484;-82
2022/05/02 08:00:16;;;;;;;11.70;9.70;;;16.20;99.90;;;;;;5025594;28;20993;-81
2022/05/02 08:02:43;;;;;;;13.20;9.43;;;16.30;99.90;;;;;;5052601;28;20462;-81
2022/05/02 08:05:37;;;;;;;9.73;7.80;;;16.60;99.90;;;;;;5046778;28;20478;-81
2022/05/02 08:08:33;;;;;;;10.10;8.20;;;17.50;99.90;;;;;;5028053;28;20492;-81
2022/05/02 08:11:10;;;;;;;14.60;8.60;;;18.50;99.90;;;;;;5045792;28;20942;-82
2022/05/02 08:13:51;;;;;;;9.93;8.40;;;19.30;99.90;;;;;;5048438;28;20470;-81
2022/05/02 08:16:24;;;;;;;9.47;7.30;;;20.00;99.90;;;;;;5053273;28;20440;-81
2022/05/02 08:19:20;;;;;;;6.93;6.20;;;21.20;99.90;;;;;;5060295;28;20521;-81
2022/05/02 08:21:51;;;;;;;12.33;7.87;;;21.80;99.90;;;;;;5044329;28;20487;-81
2022/05/02 08:27:33;;;;;;;7.90;7.10;;;23.00;99.40;;;;;;5043432;28;20438;-80
2022/05/02 08:30:07;;;;;;;8.87;6.73;;;24.30;94.90;;;;;;5043335;28;20840;-81
2022/05/02 08:32:42;;;;;;;9.70;8.23;;;25.50;92.60;;;;;;5039204;28;20510;-80
2022/05/02 08:35:12;;;;;;;7.60;6.70;;;24.70;82.40;;;;;;5040592;28;20506;-80
2022/05/02 08:38:07;;;;;;;6.27;4.23;;;25.40;85.00;;;;;;5040450;28;20527;-81
2022/05/02 08:41:27;;;;;;;8.20;6.50;;;25.00;93.50;;;;;;5042886;28;20515;-81
2022/05/02 08:44:16;;;;;;;9.63;7.93;;;25.00;81.20;;;;;;5034856;28;20484;-79
2022/05/02 08:47:17;;;;;;;10.27;7.40;;;25.00;76.50;;;;;;5042564;28;20512;-79
2022/05/02 08:50:09;;;;;;;8.27;7.47;;;25.20;77.50;;;;;;5034349;28;20440;-81
2022/05/02 08:53:25;;;;;;;7.50;6.57;;;25.10;75.00;;;;;;5043913;28;20453;-82
2022/05/02 08:56:21;;;;;;;10.60;7.47;;;25.50;74.40;;;;;;5043653;28;20475;-82
2022/05/02 08:59:15;;;;;;;11.23;7.93;;;26.00;78.30;;;;;;5040919;28;20492;-80
2022/05/02 09:02:22;;;;;;;11.27;6.10;;;26.40;70.60;;;;;;5028659;28;20468;-82
2022/05/02 09:05:42;;;;;;;6.47;5.87;;;26.70;69.00;;;;;;5035360;28;20856;-82
2022/05/02 09:08:46;;;;;;;7.57;5.27;;;27.70;68.30;;;;;;5029933;28;20449;-82
2022/05/02 09:11:32;;;;;;;6.80;6.00;;;29.10;64.00;;;;;;5039744;28;20456;-83
2022/05/02 09:17:15;;;;;;;7.43;6.17;;;28.60;59.40;;;;;;5056123;23;20496;-84
2022/05/02 09:20:19;;;;;;;7.13;5.30;;;28.60;59.70;;;;;;4980512;28;20483;-84
2022/05/02 09:23:37;;;;;;;7.13;6.00;;;29.50;60.60;;;;;;5013112;28;20495;-85
2022/05/02 09:26:39;;;;;;;8.57;6.20;;;30.40;58.90;;;;;;5025386;28;20477;-83
2022/05/02 09:29:30;;;;;;;6.80;6.10;;;30.20;58.20;;;;;;5037794;28;20961;-83
2022/05/02 09:32:00;;;;;;;6.80;6.10;;;29.00;56.90;;;;;;5040275;28;20445;-82
2022/05/02 09:34:36;;;;;;;6.97;6.00;;;30.50;58.40;;;;;;5040656;28;20480;-84
2022/05/02 09:37:05;;;;;;;6.70;5.33;;;30.30;57.60;;;;;;5041244;28;20923;-85
2022/05/02 09:39:43;;;;;;;8.10;6.33;;;31.40;55.50;;;;;;5039850;28;20575;-84
2022/05/02 09:42:34;;;;;;;6.10;5.50;;;31.70;55.70;;;;;;5040801;28;20437;-82
2022/05/02 09:51:47;;;;;;;8.63;6.53;;;31.40;53.70;;;;;;5022210;28;20434;-84
2022/05/02 09:57:18;;;;;;;7.10;6.40;;;31.40;52.90;;;;;;5042546;28;20549;-83
2022/05/02 09:59:48;;;;;;;6.53;5.93;;;32.10;52.50;;;;;;5042558;28;20579;-83
2022/05/02 10:02:20;;;;;;;6.47;5.87;;;31.20;51.80;;;;;;5044700;28;20452;-83
2022/05/02 10:04:55;;;;;;;7.40;4.77;;;31.80;52.00;;;;;;5045983;28;20501;-85
2022/05/02 10:07:25;;;;;;;7.90;6.63;;;32.30;51.80;;;;;;5053896;28;20444;-83
2022/05/02 10:10:03;;;;;;;7.47;6.77;;;32.70;50.50;;;;;;5047811;28;20548;-84
2022/05/02 10:12:46;;;;;;;7.90;6.37;;;32.80;52.20;;;;;;5042042;28;20460;-83
2022/05/02 10:15:42;;;;;;;6.67;6.07;;;32.90;50.10;;;;;;5037967;28;20515;-83
2022/05/02 10:18:25;;;;;;;6.33;5.47;;;33.00;49.90;;;;;;5040125;28;20949;-83
2022/05/02 10:21:03;;;;;;;9.40;6.10;;;33.80;50.00;;;;;;5039406;28;20448;-82
2022/05/02 10:24:03;;;;;;;7.03;6.33;;;32.50;49.30;;;;;;5043309;28;20444;-84
2022/05/02 10:26:40;;;;;;;6.23;5.60;;;32.10;53.00;;;;;;5043658;28;20458;-84
2022/05/02 10:29:34;;;;;;;9.00;5.87;;;32.60;49.40;;;;;;5044003;28;20446;-83
2022/05/02 10:32:05;;;;;;;6.37;5.77;;;32.20;49.90;;;;;;5036853;28;20514;-83
2022/05/02 10:34:36;;;;;;;7.83;5.60;;;33.30;49.80;;;;;;5039269;28;20465;-82
2022/05/02 10:37:06;;;;;;;6.77;5.40;;;34.30;50.40;;;;;;5043765;28;20488;-82
2022/05/02 10:39:46;;;;;;;5.77;5.17;;;34.50;49.40;;;;;;5047222;28;20511;-84
2022/05/02 10:42:18;;;;;;;8.30;4.80;;;34.40;48.10;;;;;;5045882;28;20460;-81
2022/05/02 10:44:52;;;;;;;6.80;5.33;;;35.20;49.40;;;;;;5043263;28;20492;-86
2022/05/02 10:47:21;;;;;;;5.10;4.20;;;35.10;47.50;;;;;;5042908;28;20475;-83
2022/05/02 10:50:05;;;;;;;6.30;5.40;;;36.20;48.20;;;;;;5041755;28;20824;-81
2022/05/02 10:52:49;;;;;;;6.40;5.37;;;36.30;46.10;;;;;;5042525;28;20440;-83
2022/05/02 10:55:21;;;;;;;6.90;5.70;;;35.80;46.40;;;;;;5042139;28;20473;-82
2022/05/02 10:57:53;;;;;;;6.43;5.50;;;35.10;45.20;;;;;;5042867;28;20449;-84
2022/05/02 11:00:20;;;;;;;7.57;6.00;;;35.10;46.70;;;;;;5039974;28;20485;-82
2022/05/02 11:03:06;;;;;;;6.40;4.37;;;35.10;45.70;;;;;;5040285;28;20877;-79
2022/05/02 11:05:43;;;;;;;6.83;4.20;;;34.60;49.20;;;;;;5037197;28;20476;-80
2022/05/02 11:08:12;;;;;;;4.60;3.40;;;35.70;49.50;;;;;;5038601;28;20870;-80
2022/05/02 11:10:43;;;;;;;6.50;4.80;;;36.10;47.50;;;;;;5038326;28;20527;-80
2022/05/02 11:13:25;;;;;;;6.70;5.37;;;37.40;47.10;;;;;;5049867;28;20440;-82
2022/05/02 11:16:02;;;;;;;6.27;4.83;;;36.80;45.00;;;;;;5060456;28;20516;-81
2022/05/02 11:21:45;;;;;;;9.80;6.37;;;37.80;45.00;;;;;;5004699;28;20467;-85
2022/05/02 11:24:42;;;;;;;7.53;5.30;;;36.60;43.10;;;;;;5043734;28;20459;-81
2022/05/02 11:27:34;;;;;;;7.23;6.40;;;36.40;45.00;;;;;;5052807;28;20544;-82
2022/05/02 11:30:11;;;;;;;9.80;6.10;;;37.40;43.70;;;;;;5019745;28;20480;-82
2022/05/02 11:32:47;;;;;;;6.67;5.00;;;37.00;43.60;;;;;;5038712;28;20459;-82
2022/05/02 11:35:20;;;;;;;6.00;5.10;;;37.90;44.70;;;;;;5042816;28;20475;-82
2022/05/02 11:37:55;;;;;;;5.53;5.03;;;38.50;46.00;;;;;;5045927;28;20468;-84
2022/05/02 11:40:28;;;;;;;6.90;5.10;;;37.90;43.60;;;;;;5043433;28;20460;-82
2022/05/02 11:42:57;;;;;;;10.63;7.33;;;37.50;45.40;;;;;;5040334;28;20557;-80
2022/05/02 11:45:36;;;;;;;6.90;6.20;;;36.70;41.60;;;;;;5042040;28;20481;-82
2022/05/02 11:48:29;;;;;;;5.23;4.57;;;37.20;42.40;;;;;;5043787;28;20476;-83
2022/05/02 11:51:00;;;;;;;7.93;6.47;;;38.00;42.00;;;;;;5034684;28;20479;-83
2022/05/02 11:53:34;;;;;;;8.00;6.13;;;36.40;42.70;;;;;;5054634;28;20475;-82
2022/05/02 11:56:04;;;;;;;5.60;4.97;;;36.20;42.80;;;;;;5044061;28;21051;-83
2022/05/02 11:58:38;;;;;;;5.93;5.43;;;36.80;43.80;;;;;;5044316;28;20487;-82
2022/05/02 12:01:10;;;;;;;6.53;5.60;;;35.60;43.90;;;;;;5046056;28;20472;-82
2022/05/02 12:03:54;;;;;;;6.10;4.73;;;35.20;46.70;;;;;;5042947;28;20483;-82
2022/05/02 12:06:32;;;;;;;7.37;6.23;;;37.20;46.10;;;;;;5033306;28;20507;-82
2022/05/02 12:09:04;;;;;;;6.20;5.60;;;36.90;44.50;;;;;;5043356;28;20924;-81
2022/05/02 12:11:32;;;;;;;6.82;6.13;;;38.30;45.10;;;;;;5045355;28;20453;-84
2022/05/02 12:14:04;;;;;;;6.33;5.03;;;37.90;42.00;;;;;;5044113;28;20217;-83
2022/05/02 12:16:33;;;;;;;5.40;5.00;;;39.00;41.60;;;;;;5045928;28;20459;-84
2022/05/02 12:19:03;;;;;;;7.57;6.87;;;39.10;42.50;;;;;;5061176;28;20492;-83
2022/05/02 12:21:37;;;;;;;5.07;4.57;;;38.80;40.20;;;;;;5057132;28;20715;-84
2022/05/02 12:24:05;;;;;;;7.23;5.07;;;39.80;40.90;;;;;;5044864;28;20463;-82
2022/05/02 12:26:35;;;;;;;6.63;5.67;;;38.80;40.40;;;;;;5042538;28;20484;-82
2022/05/02 12:29:13;;;;;;;7.77;6.77;;;36.20;42.10;;;;;;5043491;28;20469;-82
2022/05/02 12:31:44;;;;;;;8.60;6.13;;;32.70;43.90;;;;;;5046968;28;20475;-81
2022/05/02 12:34:12;;;;;;;7.10;5.90;;;34.00;45.90;;;;;;5045289;28;20516;-82
2022/05/02 12:36:54;;;;;;;6.20;5.33;;;35.70;46.30;;;;;;5046942;28;20453;-83
2022/05/02 12:39:26;;;;;;;7.60;6.57;;;36.70;46.00;;;;;;5044416;28;21004;-82
2022/05/02 12:42:12;;;;;;;6.90;6.20;;;36.90;41.90;;;;;;5042469;28;20453;-81
2022/05/02 12:44:44;;;;;;;6.30;5.37;;;36.30;41.80;;;;;;5040683;28;21011;-79
2022/05/02 12:47:19;;;;;;;7.70;4.43;;;36.70;41.30;;;;;;5035250;28;20522;-82
2022/05/02 12:49:59;;;;;;;5.77;5.17;;;34.40;44.90;;;;;;5040281;28;20425;-83
2022/05/02 12:52:29;;;;;;;8.17;6.10;;;35.10;44.10;;;;;;5027626;28;20531;-83
2022/05/02 12:54:57;;;;;;;5.00;4.50;;;35.30;43.70;;;;;;5039123;28;20552;-82
2022/05/02 13:00:34;;;;;;;5.77;5.00;;;37.90;44.90;;;;;;5041015;28;20457;-83
2022/05/02 13:03:15;;;;;;;5.47;4.37;;;38.30;41.40;;;;;;5042383;28;20464;-82
2022/05/02 13:05:51;;;;;;;5.70;5.20;;;38.80;41.00;;;;;;5043213;28;20485;-82
2022/05/02 13:08:21;;;;;;;7.40;5.10;;;39.20;41.50;;;;;;5024778;28;20454;-81
2022/05/02 13:10:52;;;;;;;7.30;6.30;;;36.90;40.70;;;;;;5024311;28;20465;-82
2022/05/02 13:13:19;;;;;;;6.03;5.50;;;33.30;40.70;;;;;;5044645;28;20873;-80
2022/05/02 13:15:48;;;;;;;6.63;5.50;;;31.90;44.90;;;;;;5043122;28;20495;-82
2022/05/02 13:18:18;;;;;;;10.47;6.60;;;30.20;44.80;;;;;;5042150;28;20545;-81
2022/05/02 13:20:58;;;;;;;5.53;4.97;;;28.50;46.10;;;;;;5041724;28;20567;-81
2022/05/02 13:23:37;;;;;;;8.20;6.57;;;27.90;48.00;;;;;;5040488;28;20456;-80
2022/05/02 13:26:27;;;;;;;6.83;5.03;;;27.10;49.80;;;;;;5050588;28;20472;-80
2022/05/02 13:29:02;;;;;;;4.90;4.40;;;26.70;49.60;;;;;;5040245;28;20445;-81
2022/05/02 13:31:43;;;;;;;5.73;5.13;;;26.50;49.70;;;;;;5039678;28;20425;-82
2022/05/02 13:34:29;;;;;;;7.10;5.10;;;26.50;50.00;;;;;;5038474;28;20452;-82
2022/05/02 13:37:17;;;;;;;11.03;4.93;;;26.80;51.20;;;;;;5037495;28;20457;-82
2022/05/02 13:39:52;;;;;;;6.07;4.87;;;28.70;48.80;;;;;;5030015;28;20496;-81
2022/05/02 13:42:39;;;;;;;6.10;5.30;;;28.40;46.70;;;;;;5037967;28;20452;-81
2022/05/02 13:45:16;;;;;;;5.27;4.60;;;28.00;47.80;;;;;;5020394;28;20477;-82
2022/05/02 13:47:51;;;;;;;5.90;4.80;;;27.20;50.70;;;;;;5019088;28;20449;-82